createdAt,value
2018-12-27T00:02:17.635Z,23.05
2018-12-27T00:04:45.577Z,23.04
2018-12-27T00:07:10.989Z,23.06
2018-12-27T00:09:37.624Z,23.05
2018-12-27T00:12:04.270Z,23.06
2018-12-27T00:14:30.933Z,23.08
2018-12-27T00:16:57.620Z,23.07
2018-12-27T00:19:24.276Z,23.08
2018-12-27T00:21:50.922Z,23.05
2018-12-27T00:24:17.578Z,23.06
2018-12-27T00:26:44.227Z,23.04
2018-12-27T00:29:10.883Z,23.06
2018-12-27T00:31:37.532Z,23.04
2018-12-27T00:34:04.179Z,23.08
2018-12-27T00:36:30.871Z,23.09
2018-12-27T00:38:57.521Z,23.04
2018-12-27T00:41:24.169Z,23.05
2018-12-27T00:43:50.954Z,23.05
2018-12-27T00:46:17.595Z,23.08
2018-12-27T00:48:44.284Z,23.04
2018-12-27T00:51:10.926Z,23.06
2018-12-27T00:53:37.570Z,23.03
2018-12-27T00:56:04.245Z,23.03
2018-12-27T00:58:30.889Z,23.04
2018-12-27T01:00:57.537Z,23.03
2018-12-27T01:03:24.237Z,23.04
2018-12-27T01:05:50.869Z,23.02
2018-12-27T01:08:17.520Z,23.03
2018-12-27T01:10:44.169Z,23.04
2018-12-27T01:13:10.818Z,23.05
2018-12-27T01:15:37.457Z,23.06
2018-12-27T01:18:04.129Z,23.03
2018-12-27T01:20:30.822Z,23.05
2018-12-27T01:22:57.465Z,23.05
2018-12-27T01:25:24.182Z,23.04
2018-12-27T01:27:50.844Z,23.03
2018-12-27T01:30:17.460Z,23.03
2018-12-27T01:32:44.117Z,23.02
2018-12-27T01:35:10.760Z,23.05
2018-12-27T01:37:37.409Z,23.05
2018-12-27T01:40:04.106Z,23.06
2018-12-27T01:42:30.749Z,23.08
2018-12-27T01:44:57.380Z,23.07
2018-12-27T01:47:24.036Z,23.05
2018-12-27T01:49:50.683Z,23.04
2018-12-27T01:52:17.372Z,23.03
2018-12-27T01:54:44.006Z,23.06
2018-12-27T01:57:10.736Z,23.06
2018-12-27T01:59:37.430Z,23.08
2018-12-27T02:02:04.072Z,23.05
2018-12-27T02:04:30.713Z,23.06
2018-12-27T02:06:57.366Z,23.04
2018-12-27T02:09:24.011Z,23.05
2018-12-27T02:11:50.648Z,23.04
2018-12-27T02:14:17.297Z,23.06
2018-12-27T02:16:43.937Z,23.06
2018-12-27T02:19:10.595Z,23.05
2018-12-27T02:21:37.246Z,23.04
2018-12-27T02:24:03.918Z,23.05
2018-12-27T02:26:30.546Z,23.06
2018-12-27T02:28:57.215Z,23.05
2018-12-27T02:31:23.901Z,23.04
2018-12-27T02:33:53.740Z,23.04
2018-12-27T02:36:20.396Z,23.05
2018-12-27T02:38:47.090Z,23.03
2018-12-27T02:41:13.783Z,23.04
2018-12-27T02:43:40.420Z,23.06
2018-12-27T02:46:07.109Z,23.04
2018-12-27T02:48:33.759Z,23.01
2018-12-27T02:51:00.486Z,23.03
2018-12-27T02:53:27.179Z,23.06
2018-12-27T02:55:53.840Z,23.05
2018-12-27T02:58:20.497Z,23.06
2018-12-27T03:00:47.194Z,23.05
2018-12-27T03:03:13.836Z,23.02
2018-12-27T03:05:40.533Z,23.06
2018-12-27T03:08:07.183Z,23.03
2018-12-27T03:10:33.872Z,23.05
2018-12-27T03:13:00.511Z,23.03
2018-12-27T03:15:27.205Z,23.04
2018-12-27T03:17:53.850Z,23.04
2018-12-27T03:20:20.493Z,23.06
2018-12-27T03:22:47.206Z,23.06
2018-12-27T03:25:13.844Z,23.09
2018-12-27T03:27:40.549Z,23.10
2018-12-27T03:30:07.191Z,23.06
2018-12-27T03:32:33.892Z,23.05
2018-12-27T03:35:00.559Z,23.04
2018-12-27T03:37:27.230Z,23.02
2018-12-27T03:39:53.865Z,23.06
2018-12-27T03:42:20.573Z,23.05
2018-12-27T03:44:47.209Z,23.05
2018-12-27T03:47:13.851Z,23.02
2018-12-27T03:49:40.518Z,23.04
2018-12-27T03:52:07.156Z,23.05
2018-12-27T03:54:33.806Z,23.07
2018-12-27T03:57:00.439Z,23.04
2018-12-27T03:59:27.134Z,23.05
2018-12-27T04:01:53.887Z,23.05
2018-12-27T04:04:20.537Z,23.04
2018-12-27T04:06:47.167Z,23.04
2018-12-27T04:09:13.826Z,23.06
2018-12-27T04:11:40.476Z,23.02
2018-12-27T04:14:07.117Z,23.03
2018-12-27T04:16:33.761Z,23.02
2018-12-27T04:19:00.452Z,22.99
2018-12-27T04:21:27.140Z,22.96
2018-12-27T04:23:53.931Z,22.95
2018-12-27T04:26:20.574Z,22.91
2018-12-27T04:28:47.274Z,22.89
2018-12-27T04:31:13.969Z,22.90
2018-12-27T04:33:40.604Z,22.89
2018-12-27T04:36:07.257Z,22.87
2018-12-27T04:38:33.953Z,22.88
2018-12-27T04:41:00.644Z,22.88
2018-12-27T04:43:27.298Z,22.88
2018-12-27T04:45:53.936Z,22.85
2018-12-27T04:48:20.698Z,22.80
2018-12-27T04:50:47.402Z,22.52
2018-12-27T04:53:14.038Z,22.31
2018-12-27T04:55:40.738Z,22.25
2018-12-27T04:58:07.397Z,22.43
2018-12-27T05:00:34.037Z,22.45
2018-12-27T05:03:00.697Z,22.89
2018-12-27T05:05:27.348Z,22.93
2018-12-27T05:07:54.053Z,22.78
2018-12-27T05:10:20.729Z,22.76
2018-12-27T05:12:47.375Z,22.79
2018-12-27T05:15:14.069Z,22.79
2018-12-27T05:17:40.705Z,22.80
2018-12-27T05:20:07.353Z,22.79
2018-12-27T05:22:34.047Z,22.82
2018-12-27T05:25:00.700Z,22.83
2018-12-27T05:27:27.335Z,22.85
2018-12-27T05:29:53.987Z,22.87
2018-12-27T05:32:20.677Z,22.85
2018-12-27T05:34:47.315Z,22.84
2018-12-27T05:37:13.960Z,22.87
2018-12-27T05:39:40.617Z,22.87
2018-12-27T05:42:07.316Z,22.86
2018-12-27T05:44:33.949Z,22.84
2018-12-27T05:47:00.656Z,22.89
2018-12-27T05:49:27.298Z,22.86
2018-12-27T05:51:54.091Z,22.86
2018-12-27T05:54:20.789Z,22.85
2018-12-27T05:56:47.441Z,22.85
2018-12-27T05:59:14.105Z,22.86
2018-12-27T06:01:40.761Z,22.84
2018-12-27T06:04:07.470Z,22.85
2018-12-27T06:06:34.121Z,22.85
2018-12-27T06:09:00.759Z,22.86
2018-12-27T06:11:27.411Z,22.85
2018-12-27T06:13:54.115Z,22.94
2018-12-27T06:16:20.763Z,22.91
2018-12-27T06:18:47.410Z,22.86
2018-12-27T06:21:14.062Z,22.86
2018-12-27T06:23:40.714Z,22.87
2018-12-27T06:26:07.353Z,22.87
2018-12-27T06:28:34.005Z,22.85
2018-12-27T06:31:00.653Z,22.86
2018-12-27T06:33:27.325Z,22.87
2018-12-27T06:35:53.970Z,22.86
2018-12-27T06:38:20.746Z,22.82
2018-12-27T06:40:47.385Z,22.83
2018-12-27T06:43:14.049Z,22.85
2018-12-27T06:45:40.688Z,22.86
2018-12-27T06:48:07.396Z,22.89
2018-12-27T06:50:34.034Z,22.92
2018-12-27T06:53:00.720Z,22.90
2018-12-27T06:55:27.466Z,22.91
2018-12-27T06:57:54.133Z,22.96
2018-12-27T07:00:20.803Z,23.00
2018-12-27T07:02:47.451Z,23.02
2018-12-27T07:05:15.549Z,22.96
2018-12-27T07:07:40.756Z,23.00
2018-12-27T07:10:07.447Z,22.99
2018-12-27T07:12:34.136Z,23.02
2018-12-27T07:15:00.778Z,22.99
2018-12-27T07:17:27.473Z,23.03
2018-12-27T07:19:54.177Z,23.04
2018-12-27T07:22:20.821Z,23.04
2018-12-27T07:24:47.456Z,23.02
2018-12-27T07:27:14.103Z,23.05
2018-12-27T07:29:40.807Z,23.03
2018-12-27T07:32:07.453Z,23.06
2018-12-27T07:34:34.162Z,23.08
2018-12-27T07:37:00.815Z,23.06
2018-12-27T07:39:27.459Z,23.07
2018-12-27T07:41:54.153Z,23.08
2018-12-27T07:44:20.789Z,23.10
2018-12-27T07:46:47.475Z,23.09
2018-12-27T07:49:14.109Z,23.09
2018-12-27T07:51:40.988Z,23.10
2018-12-27T07:54:07.607Z,23.08
2018-12-27T07:56:34.265Z,23.09
2018-12-27T07:59:00.963Z,23.15
2018-12-27T08:01:27.603Z,23.14
2018-12-27T08:03:54.309Z,23.09
2018-12-27T08:06:20.949Z,23.04
2018-12-27T08:08:47.589Z,23.04
2018-12-27T08:11:14.294Z,23.03
2018-12-27T08:13:40.938Z,23.05
2018-12-27T08:16:07.584Z,23.05
2018-12-27T08:18:34.280Z,23.05
2018-12-27T08:21:00.932Z,23.08
2018-12-27T08:23:27.630Z,23.09
2018-12-27T08:25:54.266Z,23.11
2018-12-27T08:28:20.957Z,23.12
2018-12-27T08:30:47.646Z,23.15
2018-12-27T08:33:14.317Z,23.14
2018-12-27T08:35:42.379Z,23.14
2018-12-27T08:38:07.649Z,23.11
2018-12-27T08:40:34.338Z,23.12
2018-12-27T08:43:00.986Z,23.26
2018-12-27T08:45:27.797Z,23.27
2018-12-27T08:47:54.442Z,23.23
2018-12-27T08:50:21.077Z,23.30
2018-12-27T08:52:47.734Z,23.20
2018-12-27T08:55:14.466Z,23.18
2018-12-27T08:57:41.118Z,23.17
2018-12-27T09:00:07.767Z,23.15
2018-12-27T09:02:34.454Z,23.16
2018-12-27T09:05:01.136Z,23.15
2018-12-27T09:07:27.829Z,23.16
2018-12-27T09:09:54.534Z,23.05
2018-12-27T09:12:21.224Z,23.15
2018-12-27T09:14:47.875Z,23.14
2018-12-27T09:17:14.526Z,23.19
2018-12-27T09:19:41.239Z,23.13
2018-12-27T09:22:07.925Z,23.13
2018-12-27T09:24:34.542Z,23.20
2018-12-27T09:27:01.186Z,23.20
2018-12-27T09:29:27.844Z,23.15
2018-12-27T09:31:54.480Z,23.12
2018-12-27T09:34:21.128Z,23.10
2018-12-27T09:36:47.782Z,23.23
2018-12-27T09:39:14.420Z,23.13
2018-12-27T09:41:41.073Z,23.11
2018-12-27T09:44:07.712Z,23.06
2018-12-27T09:46:34.357Z,23.11
2018-12-27T09:49:01.006Z,23.12
2018-12-27T09:51:27.656Z,23.11
2018-12-27T09:53:54.291Z,23.11
2018-12-27T09:56:20.957Z,23.11
2018-12-27T09:58:47.589Z,23.11
2018-12-27T10:01:14.254Z,23.12
2018-12-27T10:03:40.902Z,23.10
2018-12-27T10:06:07.561Z,23.16
2018-12-27T10:08:34.215Z,23.14
2018-12-27T10:11:00.866Z,23.11
2018-12-27T10:13:27.510Z,23.08
2018-12-27T10:15:54.169Z,23.08
2018-12-27T10:18:20.809Z,23.08
2018-12-27T10:20:47.463Z,23.08
2018-12-27T10:23:14.113Z,23.13
2018-12-27T10:25:40.769Z,23.16
2018-12-27T10:28:07.427Z,23.21
2018-12-27T10:30:34.094Z,23.17
2018-12-27T10:33:00.736Z,23.13
2018-12-27T10:35:27.409Z,23.12
2018-12-27T10:37:54.097Z,23.12
2018-12-27T10:40:20.730Z,23.13
2018-12-27T10:42:47.395Z,23.13
2018-12-27T10:45:14.177Z,23.07
2018-12-27T10:47:40.820Z,23.13
2018-12-27T10:50:07.467Z,23.13
2018-12-27T10:52:34.114Z,23.12
2018-12-27T10:55:00.757Z,23.15
2018-12-27T10:57:27.419Z,23.10
2018-12-27T10:59:54.098Z,23.16
2018-12-27T11:02:20.731Z,23.23
2018-12-27T11:04:47.392Z,23.14
2018-12-27T11:07:14.049Z,23.15
2018-12-27T11:09:40.797Z,23.24
2018-12-27T11:12:08.539Z,23.21
2018-12-27T11:14:35.198Z,23.15
2018-12-27T11:17:01.838Z,23.17
2018-12-27T11:19:28.488Z,23.19
2018-12-27T11:21:55.144Z,23.21
2018-12-27T11:24:21.801Z,23.15
2018-12-27T11:26:48.436Z,23.21
2018-12-27T11:29:15.096Z,23.15
2018-12-27T11:31:41.748Z,23.22
2018-12-27T11:34:09.018Z,23.27
2018-12-27T11:36:35.686Z,23.26
2018-12-27T11:39:02.337Z,23.23
2018-12-27T11:41:28.979Z,23.23
2018-12-27T11:43:55.626Z,23.19
2018-12-27T11:46:22.277Z,23.21
2018-12-27T11:48:48.922Z,23.21
2018-12-27T11:51:15.573Z,23.19
2018-12-27T11:53:42.221Z,23.17
2018-12-27T11:56:08.865Z,23.16
2018-12-27T11:58:35.522Z,23.18
2018-12-27T12:01:02.204Z,23.20
2018-12-27T12:03:28.856Z,23.20
2018-12-27T12:05:55.516Z,23.21
2018-12-27T12:08:22.161Z,23.26
2018-12-27T12:10:48.856Z,23.22
2018-12-27T12:13:15.509Z,23.21
2018-12-27T12:15:42.149Z,23.21
2018-12-27T12:18:08.806Z,23.21
2018-12-27T12:20:35.787Z,23.15
2018-12-27T12:23:02.139Z,23.18
2018-12-27T12:25:28.789Z,23.17
2018-12-27T12:27:55.480Z,23.35
2018-12-27T12:30:22.121Z,23.51
2018-12-27T12:32:48.776Z,23.35
2018-12-27T12:35:15.421Z,23.28
2018-12-27T12:37:42.125Z,23.24
2018-12-27T12:40:08.765Z,23.24
2018-12-27T12:42:35.476Z,23.26
2018-12-27T12:45:02.107Z,23.24
2018-12-27T12:47:28.796Z,23.22
2018-12-27T12:49:55.677Z,23.22
2018-12-27T12:52:22.318Z,23.04
2018-12-27T12:54:49.931Z,22.81
2018-12-27T12:57:16.585Z,22.68
2018-12-27T12:59:43.235Z,22.70
2018-12-27T13:02:09.887Z,22.89
2018-12-27T13:04:36.529Z,22.93
2018-12-27T13:07:03.247Z,23.02
2018-12-27T13:09:29.996Z,23.11
2018-12-27T13:11:56.640Z,23.11
2018-12-27T13:14:23.294Z,23.15
2018-12-27T13:16:49.949Z,23.18
2018-12-27T13:19:16.595Z,23.24
2018-12-27T13:21:43.320Z,23.26
2018-12-27T13:24:09.992Z,23.26
2018-12-27T13:26:36.652Z,23.27
2018-12-27T13:29:03.286Z,23.29
2018-12-27T13:31:29.939Z,23.45
2018-12-27T13:33:56.634Z,23.43
2018-12-27T13:36:25.459Z,23.34
2018-12-27T13:38:49.907Z,23.29
2018-12-27T13:41:16.558Z,23.24
2018-12-27T13:43:43.213Z,23.25
2018-12-27T13:46:09.920Z,23.27
2018-12-27T13:48:36.659Z,23.26
2018-12-27T13:51:03.312Z,23.27
2018-12-27T13:53:29.977Z,23.28
2018-12-27T13:55:56.634Z,23.28
2018-12-27T13:58:23.284Z,23.27
2018-12-27T14:00:49.975Z,23.28
2018-12-27T14:03:16.625Z,23.42
2018-12-27T14:05:43.262Z,23.41
2018-12-27T14:08:09.904Z,23.32
2018-12-27T14:10:36.551Z,23.27
2018-12-27T14:13:03.207Z,23.30
2018-12-27T14:15:29.861Z,23.29
2018-12-27T14:17:56.517Z,23.28
2018-12-27T14:20:23.169Z,23.27
2018-12-27T14:22:49.828Z,23.29
2018-12-27T14:25:16.464Z,23.28
2018-12-27T14:27:43.161Z,23.28
2018-12-27T14:30:09.801Z,23.31
2018-12-27T14:32:36.489Z,23.40
2018-12-27T14:35:03.144Z,23.39
2018-12-27T14:37:29.854Z,23.35
2018-12-27T14:39:56.495Z,23.31
2018-12-27T14:42:23.141Z,23.33
2018-12-27T14:44:49.793Z,23.32
2018-12-27T14:47:16.434Z,23.49
2018-12-27T14:49:43.093Z,23.36
2018-12-27T14:52:09.750Z,23.36
2018-12-27T14:54:36.404Z,23.39
2018-12-27T14:57:03.048Z,23.35
2018-12-27T14:59:29.825Z,23.47
2018-12-27T15:01:56.465Z,23.52
2018-12-27T15:04:23.119Z,23.59
2018-12-27T15:06:49.817Z,23.63
2018-12-27T15:09:16.500Z,23.49
2018-12-27T15:11:43.158Z,23.38
2018-12-27T15:14:09.800Z,23.36
2018-12-27T15:16:36.505Z,23.36
2018-12-27T15:19:03.160Z,23.35
2018-12-27T15:21:29.810Z,23.36
2018-12-27T15:23:56.440Z,23.33
2018-12-27T15:26:23.099Z,23.33
2018-12-27T15:28:49.752Z,23.35
2018-12-27T15:31:16.400Z,23.33
2018-12-27T15:33:43.051Z,23.35
2018-12-27T15:36:09.679Z,23.31
2018-12-27T15:38:36.353Z,23.33
2018-12-27T15:41:03.021Z,23.34
2018-12-27T15:43:29.680Z,23.36
2018-12-27T15:45:56.325Z,23.36
2018-12-27T15:48:23.100Z,23.32
2018-12-27T15:50:49.743Z,23.34
2018-12-27T15:53:16.383Z,23.33
2018-12-27T15:55:43.065Z,23.36
2018-12-27T15:58:09.715Z,23.34
2018-12-27T16:00:36.418Z,23.32
2018-12-27T16:03:03.061Z,23.36
2018-12-27T16:05:29.703Z,23.33
2018-12-27T16:07:56.352Z,23.33
2018-12-27T16:10:22.994Z,23.35
2018-12-27T16:12:49.687Z,23.34
2018-12-27T16:15:19.343Z,23.34
2018-12-27T16:17:46.001Z,23.35
2018-12-27T16:20:12.660Z,23.36
2018-12-27T16:22:39.309Z,23.35
2018-12-27T16:25:06.001Z,23.34
2018-12-27T16:27:32.646Z,23.37
2018-12-27T16:29:59.304Z,23.37
2018-12-27T16:32:25.991Z,23.42
2018-12-27T16:34:52.690Z,23.35
2018-12-27T16:37:19.340Z,23.36
2018-12-27T16:39:46.078Z,23.37
2018-12-27T16:42:12.716Z,23.36
2018-12-27T16:44:39.409Z,23.37
2018-12-27T16:47:06.054Z,23.38
2018-12-27T16:49:32.782Z,23.29
2018-12-27T16:51:59.427Z,23.36
2018-12-27T16:54:26.065Z,23.38
2018-12-27T16:56:52.728Z,23.37
2018-12-27T16:59:19.389Z,23.37
2018-12-27T17:01:46.078Z,23.38
2018-12-27T17:04:12.719Z,23.37
2018-12-27T17:06:39.357Z,23.36
2018-12-27T17:09:06.024Z,23.37
2018-12-27T17:11:32.661Z,23.45
2018-12-27T17:13:59.325Z,23.49
2018-12-27T17:16:25.975Z,23.52
2018-12-27T17:18:52.646Z,23.43
2018-12-27T17:21:19.301Z,23.37
2018-12-27T17:23:45.950Z,23.52
2018-12-27T17:26:12.648Z,23.43
2018-12-27T17:28:39.299Z,23.40
2018-12-27T17:31:05.991Z,23.39
2018-12-27T17:33:32.631Z,23.44
2018-12-27T17:35:59.324Z,23.42
2018-12-27T17:38:26.018Z,23.39
2018-12-27T17:40:52.658Z,23.35
2018-12-27T17:43:19.373Z,23.35
2018-12-27T17:45:46.034Z,23.35
2018-12-27T17:48:12.674Z,23.36
2018-12-27T17:50:39.330Z,23.38
2018-12-27T17:53:06.058Z,23.34
2018-12-27T17:55:32.707Z,23.35
2018-12-27T17:57:59.363Z,23.34
2018-12-27T18:00:26.060Z,23.34
2018-12-27T18:02:52.695Z,23.34
2018-12-27T18:05:19.336Z,23.36
2018-12-27T18:07:46.015Z,23.33
2018-12-27T18:10:12.710Z,23.33
2018-12-27T18:12:39.353Z,23.35
2018-12-27T18:15:05.990Z,23.33
2018-12-27T18:17:32.654Z,23.36
2018-12-27T18:19:59.290Z,23.33
2018-12-27T18:22:25.937Z,23.34
2018-12-27T18:24:52.587Z,23.34
2018-12-27T18:27:19.314Z,23.33
2018-12-27T18:29:45.957Z,23.33
2018-12-27T18:32:12.597Z,23.32
2018-12-27T18:34:39.319Z,23.31
2018-12-27T18:37:05.963Z,23.33
2018-12-27T18:39:32.614Z,23.36
2018-12-27T18:41:59.335Z,23.32
2018-12-27T18:44:25.976Z,23.34
2018-12-27T18:46:52.664Z,23.52
2018-12-27T18:49:20.742Z,23.42
2018-12-27T18:51:46.011Z,23.39
2018-12-27T18:54:12.729Z,23.38
2018-12-27T18:56:39.386Z,23.35
2018-12-27T18:59:06.028Z,23.34
2018-12-27T19:01:32.727Z,23.35
2018-12-27T19:03:59.377Z,23.31
2018-12-27T19:06:26.020Z,23.32
2018-12-27T19:08:53.307Z,23.33
2018-12-27T19:11:19.316Z,23.30
2018-12-27T19:13:45.982Z,23.36
2018-12-27T19:16:12.643Z,23.35
2018-12-27T19:18:39.305Z,23.34
2018-12-27T19:21:05.943Z,23.33
2018-12-27T19:23:32.648Z,23.32
2018-12-27T19:25:59.289Z,23.34
2018-12-27T19:28:25.932Z,23.33
2018-12-27T19:30:52.596Z,23.35
2018-12-27T19:33:19.244Z,23.34
2018-12-27T19:35:45.941Z,23.34
2018-12-27T19:38:12.633Z,23.36
2018-12-27T19:40:39.270Z,23.37
2018-12-27T19:43:05.922Z,23.37
2018-12-27T19:45:32.567Z,23.33
2018-12-27T19:47:59.213Z,23.35
2018-12-27T19:50:25.870Z,23.34
2018-12-27T19:52:52.563Z,23.36
2018-12-27T19:55:19.206Z,23.34
2018-12-27T19:57:45.913Z,23.34
2018-12-27T20:00:12.554Z,23.33
2018-12-27T20:02:39.202Z,23.31
2018-12-27T20:05:05.902Z,23.33
2018-12-27T20:07:32.546Z,23.34
2018-12-27T20:09:59.193Z,23.33
2018-12-27T20:12:25.848Z,23.35
2018-12-27T20:14:52.535Z,23.34
2018-12-27T20:17:19.175Z,23.30
2018-12-27T20:19:45.964Z,23.35
2018-12-27T20:22:12.657Z,23.34
2018-12-27T20:24:39.294Z,23.34
2018-12-27T20:27:05.948Z,23.37
2018-12-27T20:29:32.615Z,23.31
2018-12-27T20:31:59.259Z,23.37
2018-12-27T20:34:25.898Z,23.34
2018-12-27T20:36:52.537Z,23.34
2018-12-27T20:39:19.290Z,23.32
2018-12-27T20:41:45.946Z,23.33
2018-12-27T20:44:12.601Z,23.30
2018-12-27T20:46:39.324Z,23.33
2018-12-27T20:49:05.949Z,23.34
2018-12-27T20:51:32.595Z,23.29
2018-12-27T20:53:59.240Z,23.33
2018-12-27T20:56:25.934Z,23.09
2018-12-27T20:58:52.629Z,22.86
2018-12-27T21:01:19.274Z,22.73
2018-12-27T21:03:45.922Z,22.86
2018-12-27T21:06:12.627Z,22.98
2018-12-27T21:08:39.260Z,22.99
2018-12-27T21:11:05.959Z,23.04
2018-12-27T21:13:32.607Z,23.06
2018-12-27T21:15:59.259Z,23.09
2018-12-27T21:18:25.897Z,23.12
2018-12-27T21:20:52.553Z,23.13
2018-12-27T21:23:19.246Z,23.17
2018-12-27T21:25:45.891Z,23.15
2018-12-27T21:28:12.567Z,23.11
2018-12-27T21:30:39.208Z,23.07
2018-12-27T21:33:05.859Z,23.03
2018-12-27T21:35:32.514Z,23.01
2018-12-27T21:37:59.175Z,23.01
2018-12-27T21:40:25.826Z,22.96
2018-12-27T21:42:52.530Z,22.94
2018-12-27T21:45:19.168Z,22.98
2018-12-27T21:47:45.809Z,23.00
2018-12-27T21:50:12.569Z,22.98
2018-12-27T21:52:39.217Z,22.98
2018-12-27T21:55:05.917Z,22.95
2018-12-27T21:57:32.554Z,22.96
2018-12-27T21:59:59.194Z,22.95
2018-12-27T22:02:25.888Z,22.95
2018-12-27T22:04:52.530Z,22.95
2018-12-27T22:07:19.177Z,22.93
2018-12-27T22:09:45.885Z,22.95
2018-12-27T22:12:12.566Z,22.93
2018-12-27T22:14:39.208Z,22.95
2018-12-27T22:17:05.898Z,22.97
2018-12-27T22:19:32.550Z,22.95
2018-12-27T22:21:59.253Z,22.91
2018-12-27T22:24:25.920Z,22.92
2018-12-27T22:26:52.583Z,22.92
2018-12-27T22:29:19.278Z,22.93
2018-12-27T22:31:45.919Z,22.96
2018-12-27T22:34:12.613Z,22.95
2018-12-27T22:36:39.264Z,22.98
2018-12-27T22:39:05.930Z,22.96
2018-12-27T22:41:32.626Z,22.98
2018-12-27T22:43:59.348Z,22.99
2018-12-27T22:46:26.060Z,23.01
2018-12-27T22:48:52.757Z,23.03
2018-12-27T22:51:19.414Z,23.05
2018-12-27T22:53:46.072Z,23.03
2018-12-27T22:56:12.714Z,23.05
2018-12-27T22:58:39.365Z,23.05
2018-12-27T23:01:06.078Z,23.04
2018-12-27T23:03:32.789Z,23.07
2018-12-27T23:05:59.485Z,23.09
2018-12-27T23:08:26.127Z,23.10
2018-12-27T23:10:52.826Z,23.08
2018-12-27T23:13:19.471Z,23.07
2018-12-27T23:15:46.168Z,23.08
2018-12-27T23:18:13.113Z,23.10
2018-12-27T23:20:39.747Z,23.10
2018-12-27T23:23:06.454Z,23.09
2018-12-27T23:25:33.093Z,23.08
2018-12-27T23:27:59.727Z,23.06
2018-12-27T23:30:26.373Z,23.08
2018-12-27T23:32:53.145Z,23.10
2018-12-27T23:35:19.797Z,23.13
2018-12-27T23:37:46.445Z,23.10
2018-12-27T23:40:13.143Z,23.08
2018-12-27T23:42:39.780Z,23.08
2018-12-27T23:45:06.467Z,23.09
2018-12-27T23:47:33.114Z,23.09
2018-12-27T23:49:59.813Z,23.11
2018-12-27T23:52:26.458Z,23.07
2018-12-27T23:54:53.232Z,23.08
2018-12-27T23:57:22.007Z,23.09
2018-12-27T23:59:46.563Z,23.05
